sensor_id;sensor_type;location;lat;lon;timestamp;pressure;altitude;pressure_sealevel;temperature;humidity
81658;BME280;71057;51.436;6.768;2024-02-21T00:00:50;101979.59;;;8.78;100.00
81658;BME280;71057;51.436;6.768;2024-02-21T00:03:15;101966.50;;;8.75;100.00
81658;BME280;71057;51.436;6.768;2024-02-21T00:05:40;101969.84;;;8.77;100.00
81658;BME280;71057;51.436;6.768;2024-02-21T00:08:06;101965.94;;;8.79;100.00
81658;BME280;71057;51.436;6.768;2024-02-21T00:10:31;101970.97;;;8.82;100.00
81658;BME280;71057;51.436;6.768;2024-02-21T00:12:57;101958.53;;;8.81;100.00
81658;BME280;71057;51.436;6.768;2024-02-21T00:15:24;101954.13;;;8.80;100.00
81658;BME280;71057;51.436;6.768;2024-02-21T00:17:49;101961.94;;;8.90;100.00
81658;BME280;71057;51.436;6.768;2024-02-21T00:20:14;101945.22;;;8.80;100.00
81658;BME280;71057;51.436;6.768;2024-02-21T00:22:40;101952.75;;;8.84;100.00
81658;BME280;71057;51.436;6.768;2024-02-21T00:25:05;101937.72;;;8.75;100.00
81658;BME280;71057;51.436;6.768;2024-02-21T00:27:31;101939.31;;;8.84;100.00
81658;BME280;71057;51.436;6.768;2024-02-21T00:29:57;101931.41;;;8.83;100.00
81658;BME280;71057;51.436;6.768;2024-02-21T00:32:22;101923.53;;;8.81;100.00
81658;BME280;71057;51.436;6.768;2024-02-21T00:34:47;101917.00;;;8.91;100.00
81658;BME280;71057;51.436;6.768;2024-02-21T00:37:13;101918.59;;;8.85;100.00
81658;BME280;71057;51.436;6.768;2024-02-21T00:39:38;101917.19;;;8.89;100.00
81658;BME280;71057;51.436;6.768;2024-02-21T00:42:04;101918.41;;;8.86;100.00
81658;BME280;71057;51.436;6.768;2024-02-21T00:44:29;101914.13;;;8.92;100.00
81658;BME280;71057;51.436;6.768;2024-02-21T00:46:54;101908.91;;;8.91;100.00
81658;BME280;71057;51.436;6.768;2024-02-21T00:49:20;101914.69;;;8.87;100.00
81658;BME280;71057;51.436;6.768;2024-02-21T00:51:45;101908.19;;;8.97;100.00
81658;BME280;71057;51.436;6.768;2024-02-21T00:54:11;101910.78;;;8.90;100.00
81658;BME280;71057;51.436;6.768;2024-02-21T00:56:36;101902.78;;;8.97;100.00
81658;BME280;71057;51.436;6.768;2024-02-21T00:59:01;101908.09;;;8.90;100.00
81658;BME280;71057;51.436;6.768;2024-02-21T01:01:27;101902.78;;;8.97;100.00
81658;BME280;71057;51.436;6.768;2024-02-21T01:03:52;101906.06;;;8.92;100.00
81658;BME280;71057;51.436;6.768;2024-02-21T01:06:21;101891.19;;;8.96;100.00
81658;BME280;71057;51.436;6.768;2024-02-21T01:08:47;101891.19;;;8.96;100.00
81658;BME280;71057;51.436;6.768;2024-02-21T01:11:13;101893.34;;;8.86;100.00
81658;BME280;71057;51.436;6.768;2024-02-21T01:13:38;101885.91;;;8.88;100.00
81658;BME280;71057;51.436;6.768;2024-02-21T01:16:04;101884.88;;;8.89;100.00
81658;BME280;71057;51.436;6.768;2024-02-21T01:18:29;101866.63;;;8.84;100.00
81658;BME280;71057;51.436;6.768;2024-02-21T01:20:54;101863.94;;;8.84;100.00
81658;BME280;71057;51.436;6.768;2024-02-21T01:23:20;101859.38;;;8.85;100.00
81658;BME280;71057;51.436;6.768;2024-02-21T01:25:45;101863.09;;;8.84;100.00
81658;BME280;71057;51.436;6.768;2024-02-21T01:28:10;101850.91;;;8.88;100.00
81658;BME280;71057;51.436;6.768;2024-02-21T01:30:36;101850.91;;;8.88;100.00
81658;BME280;71057;51.436;6.768;2024-02-21T01:33:01;101857.53;;;8.85;100.00
81658;BME280;71057;51.436;6.768;2024-02-21T01:35:26;101856.88;;;8.83;100.00
81658;BME280;71057;51.436;6.768;2024-02-21T01:37:51;101844.31;;;8.91;100.00
81658;BME280;71057;51.436;6.768;2024-02-21T01:40:17;101857.22;;;8.95;100.00
81658;BME280;71057;51.436;6.768;2024-02-21T01:42:42;101845.41;;;8.96;100.00
81658;BME280;71057;51.436;6.768;2024-02-21T01:45:08;101851.69;;;8.82;100.00
81658;BME280;71057;51.436;6.768;2024-02-21T01:47:33;101838.47;;;8.87;100.00
81658;BME280;71057;51.436;6.768;2024-02-21T01:49:59;101839.50;;;8.86;100.00
81658;BME280;71057;51.436;6.768;2024-02-21T01:52:25;101829.88;;;8.77;100.00
81658;BME280;71057;51.436;6.768;2024-02-21T01:54:50;101827.63;;;8.80;100.00
81658;BME280;71057;51.436;6.768;2024-02-21T01:57:16;101834.31;;;8.84;100.00
81658;BME280;71057;51.436;6.768;2024-02-21T01:59:42;101830.16;;;8.82;100.00
81658;BME280;71057;51.436;6.768;2024-02-21T02:02:07;101823.06;;;8.81;100.00
81658;BME280;71057;51.436;6.768;2024-02-21T02:04:34;101825.53;;;8.76;100.00
81658;BME280;71057;51.436;6.768;2024-02-21T02:07:02;101820.53;;;8.73;100.00
81658;BME280;71057;51.436;6.768;2024-02-21T02:09:27;101821.16;;;8.75;100.00
81658;BME280;71057;51.436;6.768;2024-02-21T02:11:53;101808.94;;;8.72;100.00
81658;BME280;71057;51.436;6.768;2024-02-21T02:14:18;101797.97;;;8.74;100.00
81658;BME280;71057;51.436;6.768;2024-02-21T02:16:46;101805.56;;;8.70;100.00
81658;BME280;71057;51.436;6.768;2024-02-21T02:19:12;101793.22;;;8.76;100.00
81658;BME280;71057;51.436;6.768;2024-02-21T02:21:39;101790.78;;;8.81;100.00
81658;BME280;71057;51.436;6.768;2024-02-21T02:24:07;101776.16;;;8.69;100.00
81658;BME280;71057;51.436;6.768;2024-02-21T02:26:33;101781.94;;;8.66;100.00
81658;BME280;71057;51.436;6.768;2024-02-21T02:28:58;101768.47;;;8.66;100.00
81658;BME280;71057;51.436;6.768;2024-02-21T02:31:23;101763.28;;;8.64;100.00
81658;BME280;71057;51.436;6.768;2024-02-21T02:33:48;101756.88;;;8.65;100.00
81658;BME280;71057;51.436;6.768;2024-02-21T02:36:14;101760.31;;;8.59;100.00
81658;BME280;71057;51.436;6.768;2024-02-21T02:38:39;101749.56;;;8.59;100.00
81658;BME280;71057;51.436;6.768;2024-02-21T02:41:04;101759.41;;;8.52;100.00
81658;BME280;71057;51.436;6.768;2024-02-21T02:43:30;101761.94;;;8.53;100.00
81658;BME280;71057;51.436;6.768;2024-02-21T02:45:56;101761.94;;;8.53;100.00
81658;BME280;71057;51.436;6.768;2024-02-21T02:48:21;101746.63;;;8.54;100.00
81658;BME280;71057;51.436;6.768;2024-02-21T02:50:47;101742.06;;;8.54;100.00
81658;BME280;71057;51.436;6.768;2024-02-21T02:53:12;101752.25;;;8.59;100.00
81658;BME280;71057;51.436;6.768;2024-02-21T02:55:37;101748.59;;;8.45;100.00
81658;BME280;71057;51.436;6.768;2024-02-21T02:58:03;101759.34;;;8.45;100.00
81658;BME280;71057;51.436;6.768;2024-02-21T03:00:28;101745.88;;;8.45;100.00
81658;BME280;71057;51.436;6.768;2024-02-21T03:02:53;101733.19;;;8.39;100.00
81658;BME280;71057;51.436;6.768;2024-02-21T03:05:21;101743.38;;;8.29;100.00
81658;BME280;71057;51.436;6.768;2024-02-21T03:07:46;101730.56;;;8.31;100.00
81658;BME280;71057;51.436;6.768;2024-02-21T03:10:13;101721.03;;;8.28;100.00
81658;BME280;71057;51.436;6.768;2024-02-21T03:12:38;101741.72;;;8.28;100.00
81658;BME280;71057;51.436;6.768;2024-02-21T03:15:05;101737.06;;;8.22;100.00
81658;BME280;71057;51.436;6.768;2024-02-21T03:17:30;101733.78;;;8.35;100.00
81658;BME280;71057;51.436;6.768;2024-02-21T03:19:56;101730.88;;;8.36;100.00
81658;BME280;71057;51.436;6.768;2024-02-21T03:22:22;101716.94;;;8.32;100.00
81658;BME280;71057;51.436;6.768;2024-02-21T03:24:47;101709.16;;;8.38;100.00
81658;BME280;71057;51.436;6.768;2024-02-21T03:27:12;101703.69;;;8.31;100.00
81658;BME280;71057;51.436;6.768;2024-02-21T03:29:38;101699.72;;;8.27;100.00
81658;BME280;71057;51.436;6.768;2024-02-21T03:32:03;101710.53;;;8.34;100.00
81658;BME280;71057;51.436;6.768;2024-02-21T03:34:29;101711.09;;;8.29;100.00
81658;BME280;71057;51.436;6.768;2024-02-21T03:36:54;101708.88;;;8.32;100.00
81658;BME280;71057;51.436;6.768;2024-02-21T03:39:19;101710.66;;;8.40;100.00
81658;BME280;71057;51.436;6.768;2024-02-21T03:41:46;101704.91;;;8.28;100.00
81658;BME280;71057;51.436;6.768;2024-02-21T03:44:11;101705.53;;;8.30;100.00
81658;BME280;71057;51.436;6.768;2024-02-21T03:46:37;101704.06;;;8.28;100.00
81658;BME280;71057;51.436;6.768;2024-02-21T03:49:02;101700.34;;;8.29;100.00
81658;BME280;71057;51.436;6.768;2024-02-21T03:51:27;101705.34;;;8.32;100.00
81658;BME280;71057;51.436;6.768;2024-02-21T03:53:53;101710.00;;;8.38;100.00
81658;BME280;71057;51.436;6.768;2024-02-21T03:56:18;101718.91;;;8.39;100.00
81658;BME280;71057;51.436;6.768;2024-02-21T03:58:43;101719.28;;;8.36;100.00
81658;BME280;71057;51.436;6.768;2024-02-21T04:01:08;101713.97;;;8.42;100.00
81658;BME280;71057;51.436;6.768;2024-02-21T04:03:34;101713.81;;;8.44;100.00
81658;BME280;71057;51.436;6.768;2024-02-21T04:05:59;101708.22;;;8.45;100.00
81658;BME280;71057;51.436;6.768;2024-02-21T04:08:25;101696.34;;;8.40;100.00
81658;BME280;71057;51.436;6.768;2024-02-21T04:10:50;101707.94;;;8.40;100.00
81658;BME280;71057;51.436;6.768;2024-02-21T04:13:15;101704.81;;;8.37;100.00
81658;BME280;71057;51.436;6.768;2024-02-21T04:15:41;101701.31;;;8.36;100.00
81658;BME280;71057;51.436;6.768;2024-02-21T04:18:06;101701.53;;;8.41;100.00
81658;BME280;71057;51.436;6.768;2024-02-21T04:20:31;101693.13;;;8.44;100.00
81658;BME280;71057;51.436;6.768;2024-02-21T04:22:57;101684.22;;;8.44;100.00
81658;BME280;71057;51.436;6.768;2024-02-21T04:25:22;101683.00;;;8.46;100.00
81658;BME280;71057;51.436;6.768;2024-02-21T04:27:48;101685.41;;;8.41;100.00
81658;BME280;71057;51.436;6.768;2024-02-21T04:30:13;101693.13;;;8.44;100.00
81658;BME280;71057;51.436;6.768;2024-02-21T04:32:39;101697.34;;;8.53;100.00
81658;BME280;71057;51.436;6.768;2024-02-21T04:35:04;101693.63;;;8.54;100.00
81658;BME280;71057;51.436;6.768;2024-02-21T04:37:30;101694.66;;;8.53;100.00
81658;BME280;71057;51.436;6.768;2024-02-21T04:39:56;101687.03;;;8.57;100.00
81658;BME280;71057;51.436;6.768;2024-02-21T04:42:21;101685.81;;;8.59;100.00
81658;BME280;71057;51.436;6.768;2024-02-21T04:44:46;101691.19;;;8.59;100.00
81658;BME280;71057;51.436;6.768;2024-02-21T04:47:12;101682.69;;;8.56;100.00
81658;BME280;71057;51.436;6.768;2024-02-21T04:49:38;101683.38;;;8.65;100.00
81658;BME280;71057;51.436;6.768;2024-02-21T04:52:04;101685.44;;;8.63;100.00
81658;BME280;71057;51.436;6.768;2024-02-21T04:54:29;101674.69;;;8.63;100.00
81658;BME280;71057;51.436;6.768;2024-02-21T04:56:54;101679.06;;;8.70;100.00
81658;BME280;71057;51.436;6.768;2024-02-21T04:59:19;101681.44;;;8.58;100.00
81658;BME280;71057;51.436;6.768;2024-02-21T05:01:45;101683.19;;;8.66;100.00
81658;BME280;71057;51.436;6.768;2024-02-21T05:04:10;101689.97;;;8.62;100.00
81658;BME280;71057;51.436;6.768;2024-02-21T05:06:39;101680.09;;;8.69;100.00
81658;BME280;71057;51.436;6.768;2024-02-21T05:09:06;101686.59;;;8.75;100.00
81658;BME280;71057;51.436;6.768;2024-02-21T05:11:31;101676.38;;;8.70;100.00
81658;BME280;71057;51.436;6.768;2024-02-21T05:13:57;101670.56;;;8.67;100.00
81658;BME280;71057;51.436;6.768;2024-02-21T05:16:22;101664.44;;;8.73;100.00
81658;BME280;71057;51.436;6.768;2024-02-21T05:18:48;101666.44;;;8.71;100.00
81658;BME280;71057;51.436;6.768;2024-02-21T05:21:13;101672.63;;;8.65;100.00
81658;BME280;71057;51.436;6.768;2024-02-21T05:23:38;101668.50;;;8.69;100.00
81658;BME280;71057;51.436;6.768;2024-02-21T05:26:05;101673.53;;;8.72;100.00
81658;BME280;71057;51.436;6.768;2024-02-21T05:28:31;101666.66;;;8.69;100.00
81658;BME280;71057;51.436;6.768;2024-02-21T05:30:56;101657.19;;;8.73;100.00
81658;BME280;71057;51.436;6.768;2024-02-21T05:33:22;101647.38;;;8.66;100.00
81658;BME280;71057;51.436;6.768;2024-02-21T05:35:47;101647.38;;;8.66;100.00
81658;BME280;71057;51.436;6.768;2024-02-21T05:38:16;101652.28;;;8.62;100.00
81658;BME280;71057;51.436;6.768;2024-02-21T05:40:42;101653.31;;;8.61;100.00
81658;BME280;71057;51.436;6.768;2024-02-21T05:43:08;101652.75;;;8.66;100.00
81658;BME280;71057;51.436;6.768;2024-02-21T05:45:34;101650.31;;;8.71;100.00
81658;BME280;71057;51.436;6.768;2024-02-21T05:47:59;101648.28;;;8.73;100.00
81658;BME280;71057;51.436;6.768;2024-02-21T05:50:24;101643.66;;;8.67;100.00
81658;BME280;71057;51.436;6.768;2024-02-21T05:52:54;101652.75;;;8.66;100.00
81658;BME280;71057;51.436;6.768;2024-02-21T05:55:20;101642.19;;;8.64;100.00
81658;BME280;71057;51.436;6.768;2024-02-21T05:57:45;101635.16;;;8.63;100.00
81658;BME280;71057;51.436;6.768;2024-02-21T06:00:11;101632.00;;;8.59;100.00
81658;BME280;71057;51.436;6.768;2024-02-21T06:02:36;101629.06;;;8.54;100.00
81658;BME280;71057;51.436;6.768;2024-02-21T06:05:02;101627.91;;;8.64;100.00
81658;BME280;71057;51.436;6.768;2024-02-21T06:07:27;101622.03;;;8.53;100.00
81658;BME280;71057;51.436;6.768;2024-02-21T06:09:52;101615.22;;;8.57;100.00
81658;BME280;71057;51.436;6.768;2024-02-21T06:12:18;101614.59;;;8.55;100.00
81658;BME280;71057;51.436;6.768;2024-02-21T06:14:43;101598.25;;;8.57;100.00
81658;BME280;71057;51.436;6.768;2024-02-21T06:17:08;101595.34;;;8.58;100.00
81658;BME280;71057;51.436;6.768;2024-02-21T06:19:34;101594.09;;;8.54;100.00
81658;BME280;71057;51.436;6.768;2024-02-21T06:21:59;101589.28;;;8.50;100.00
81658;BME280;71057;51.436;6.768;2024-02-21T06:24:24;101587.69;;;8.55;100.00
81658;BME280;71057;51.436;6.768;2024-02-21T06:26:50;101585.00;;;8.55;100.00
81658;BME280;71057;51.436;6.768;2024-02-21T06:29:15;101589.91;;;8.52;100.00
81658;BME280;71057;51.436;6.768;2024-02-21T06:31:40;101587.28;;;8.58;100.00
81658;BME280;71057;51.436;6.768;2024-02-21T06:34:06;101593.69;;;8.57;100.00
81658;BME280;71057;51.436;6.768;2024-02-21T06:36:31;101583.31;;;8.54;100.00
81658;BME280;71057;51.436;6.768;2024-02-21T06:38:56;101579.59;;;8.55;100.00
81658;BME280;71057;51.436;6.768;2024-02-21T06:41:21;101578.19;;;8.59;100.00
81658;BME280;71057;51.436;6.768;2024-02-21T06:43:47;101569.88;;;8.54;100.00
81658;BME280;71057;51.436;6.768;2024-02-21T06:46:28;101570.94;;;8.60;100.00
81658;BME280;71057;51.436;6.768;2024-02-21T06:48:54;101580.94;;;8.66;100.00
81658;BME280;71057;51.436;6.768;2024-02-21T06:51:21;101567.19;;;8.54;100.00
81658;BME280;71057;51.436;6.768;2024-02-21T06:53:46;101574.09;;;8.64;100.00
81658;BME280;71057;51.436;6.768;2024-02-21T06:56:12;101574.47;;;8.61;100.00
81658;BME280;71057;51.436;6.768;2024-02-21T06:58:37;101574.09;;;8.64;100.00
81658;BME280;71057;51.436;6.768;2024-02-21T07:01:02;101573.28;;;8.70;100.00
81658;BME280;71057;51.436;6.768;2024-02-21T07:03:28;101564.16;;;8.64;100.00
81658;BME280;71057;51.436;6.768;2024-02-21T07:05:53;101557.81;;;8.72;100.00
81658;BME280;71057;51.436;6.768;2024-02-21T07:08:18;101572.53;;;8.76;100.00
81658;BME280;71057;51.436;6.768;2024-02-21T07:10:45;101565.91;;;8.78;100.00
81658;BME280;71057;51.436;6.768;2024-02-21T07:13:10;101563.69;;;8.82;100.00
81658;BME280;71057;51.436;6.768;2024-02-21T07:15:35;101560.97;;;8.82;100.00
81658;BME280;71057;51.436;6.768;2024-02-21T07:18:02;101563.81;;;8.74;100.00
81658;BME280;71057;51.436;6.768;2024-02-21T07:20:27;101549.34;;;8.75;100.00
81658;BME280;71057;51.436;6.768;2024-02-21T07:22:52;101553.28;;;8.79;100.00
81658;BME280;71057;51.436;6.768;2024-02-21T07:25:18;101557.25;;;8.83;100.00
81658;BME280;71057;51.436;6.768;2024-02-21T07:27:44;101563.13;;;8.93;100.00
81658;BME280;71057;51.436;6.768;2024-02-21T07:30:09;101550.09;;;8.97;100.00
81658;BME280;71057;51.436;6.768;2024-02-21T07:32:35;101549.03;;;8.91;100.00
81658;BME280;71057;51.436;6.768;2024-02-21T07:35:00;101546.38;;;8.98;100.00
81658;BME280;71057;51.436;6.768;2024-02-21T07:37:25;101548.84;;;8.99;100.00
81658;BME280;71057;51.436;6.768;2024-02-21T07:39:50;101557.34;;;8.96;100.00
81658;BME280;71057;51.436;6.768;2024-02-21T07:42:16;101543.47;;;8.99;100.00
81658;BME280;71057;51.436;6.768;2024-02-21T07:44:41;101538.91;;;9.00;100.00
81658;BME280;71057;51.436;6.768;2024-02-21T07:47:06;101551.25;;;9.15;100.00
81658;BME280;71057;51.436;6.768;2024-02-21T07:49:32;101551.41;;;9.07;100.00
81658;BME280;71057;51.436;6.768;2024-02-21T07:52:00;101539.22;;;9.11;100.00
81658;BME280;71057;51.436;6.768;2024-02-21T07:54:25;101525.66;;;8.98;100.00
81658;BME280;71057;51.436;6.768;2024-02-21T07:56:50;101526.13;;;9.02;100.00
81658;BME280;71057;51.436;6.768;2024-02-21T07:59:15;101524.09;;;9.10;100.00
81658;BME280;71057;51.436;6.768;2024-02-21T08:01:41;101506.53;;;9.21;100.00
81658;BME280;71057;51.436;6.768;2024-02-21T08:04:06;101540.88;;;9.12;100.00
81658;BME280;71057;51.436;6.768;2024-02-21T08:06:31;101516.78;;;9.04;100.00
81658;BME280;71057;51.436;6.768;2024-02-21T08:08:57;101513.47;;;9.02;100.00
81658;BME280;71057;51.436;6.768;2024-02-21T08:11:22;101515.34;;;9.08;100.00
81658;BME280;71057;51.436;6.768;2024-02-21T08:13:47;101509.13;;;9.01;100.00
81658;BME280;71057;51.436;6.768;2024-02-21T08:16:13;101502.13;;;9.13;100.00
81658;BME280;71057;51.436;6.768;2024-02-21T08:18:38;101494.09;;;9.20;100.00
81658;BME280;71057;51.436;6.768;2024-02-21T08:21:04;101492.44;;;9.19;100.00
81658;BME280;71057;51.436;6.768;2024-02-21T08:23:29;101481.69;;;9.26;100.00
81658;BME280;71057;51.436;6.768;2024-02-21T08:25:54;101468.69;;;9.42;100.00
81658;BME280;71057;51.436;6.768;2024-02-21T08:28:20;101474.28;;;9.41;100.00
81658;BME280;71057;51.436;6.768;2024-02-21T08:30:45;101468.28;;;9.39;100.00
81658;BME280;71057;51.436;6.768;2024-02-21T08:33:14;101480.84;;;9.25;100.00
81658;BME280;71057;51.436;6.768;2024-02-21T08:35:39;101477.13;;;9.20;100.00
81658;BME280;71057;51.436;6.768;2024-02-21T08:38:05;101486.94;;;8.99;100.00
81658;BME280;71057;51.436;6.768;2024-02-21T08:40:30;101467.25;;;8.99;100.00
81658;BME280;71057;51.436;6.768;2024-02-21T08:42:55;101468.13;;;9.06;100.00
81658;BME280;71057;51.436;6.768;2024-02-21T08:45:20;101467.00;;;8.87;100.00
81658;BME280;71057;51.436;6.768;2024-02-21T08:47:46;101470.56;;;8.94;100.00
81658;BME280;71057;51.436;6.768;2024-02-21T08:50:11;101463.09;;;8.96;100.00
81658;BME280;71057;51.436;6.768;2024-02-21T08:52:37;101452.13;;;8.91;100.00
81658;BME280;71057;51.436;6.768;2024-02-21T08:55:02;101471.59;;;9.00;100.00
81658;BME280;71057;51.436;6.768;2024-02-21T08:57:28;101460.94;;;9.20;100.00
81658;BME280;71057;51.436;6.768;2024-02-21T08:59:53;101456.56;;;9.19;100.00
81658;BME280;71057;51.436;6.768;2024-02-21T09:02:18;101451.84;;;9.21;100.00
81658;BME280;71057;51.436;6.768;2024-02-21T09:04:44;101461.25;;;8.97;100.00
81658;BME280;71057;51.436;6.768;2024-02-21T09:07:10;101445.13;;;9.03;100.00
81658;BME280;71057;51.436;6.768;2024-02-21T09:09:35;101442.19;;;8.98;100.00
81658;BME280;71057;51.436;6.768;2024-02-21T09:12:00;101438.53;;;9.12;100.00
81658;BME280;71057;51.436;6.768;2024-02-21T09:14:31;101416.66;;;9.29;100.00
81658;BME280;71057;51.436;6.768;2024-02-21T09:16:57;101432.81;;;9.29;100.00
81658;BME280;71057;51.436;6.768;2024-02-21T09:19:22;101420.78;;;9.31;100.00
81658;BME280;71057;51.436;6.768;2024-02-21T09:21:47;101422.66;;;9.31;100.00
81658;BME280;71057;51.436;6.768;2024-02-21T09:24:13;101441.44;;;9.18;100.00
81658;BME280;71057;51.436;6.768;2024-02-21T09:26:38;101412.91;;;9.30;100.00
81658;BME280;71057;51.436;6.768;2024-02-21T09:29:04;101412.53;;;9.39;100.00
81658;BME280;71057;51.436;6.768;2024-02-21T09:31:29;101402.16;;;9.43;100.00
81658;BME280;71057;51.436;6.768;2024-02-21T09:33:54;101413.78;;;9.50;100.00
81658;BME280;71057;51.436;6.768;2024-02-21T09:36:19;101395.56;;;9.52;100.00
81658;BME280;71057;51.436;6.768;2024-02-21T09:38:46;101402.19;;;9.56;100.00
81658;BME280;71057;51.436;6.768;2024-02-21T09:41:16;101398.28;;;9.79;100.00
81658;BME280;71057;51.436;6.768;2024-02-21T09:43:42;101401.38;;;9.62;100.00
81658;BME280;71057;51.436;6.768;2024-02-21T09:46:13;101392.44;;;9.55;100.00
81658;BME280;71057;51.436;6.768;2024-02-21T09:51:14;101394.09;;;9.56;100.00
81658;BME280;71057;51.436;6.768;2024-02-21T09:53:40;101399.88;;;9.40;100.00
81658;BME280;71057;51.436;6.768;2024-02-21T09:56:10;101394.31;;;9.55;100.00
81658;BME280;71057;51.436;6.768;2024-02-21T09:58:36;101390.19;;;9.59;100.00
81658;BME280;71057;51.436;6.768;2024-02-21T10:01:02;101392.25;;;9.63;100.00
81658;BME280;71057;51.436;6.768;2024-02-21T10:03:29;101382.09;;;9.65;100.00
81658;BME280;71057;51.436;6.768;2024-02-21T10:05:54;101380.25;;;9.86;100.00
81658;BME280;71057;51.436;6.768;2024-02-21T10:08:19;101387.50;;;9.98;100.00
81658;BME280;71057;51.436;6.768;2024-02-21T10:10:45;101394.94;;;10.10;100.00
81658;BME280;71057;51.436;6.768;2024-02-21T10:13:21;101371.28;;;10.12;100.00
81658;BME280;71057;51.436;6.768;2024-02-21T10:15:47;101364.06;;;9.99;100.00
81658;BME280;71057;51.436;6.768;2024-02-21T10:18:17;101362.59;;;9.90;100.00
81658;BME280;71057;51.436;6.768;2024-02-21T10:20:42;101356.59;;;9.74;100.00
81658;BME280;71057;51.436;6.768;2024-02-21T10:23:09;101359.91;;;9.96;100.00
81658;BME280;71057;51.436;6.768;2024-02-21T10:25:37;101355.34;;;9.84;100.00
81658;BME280;71057;51.436;6.768;2024-02-21T10:28:06;101359.28;;;9.88;100.00
81658;BME280;71057;51.436;6.768;2024-02-21T10:30:32;101349.94;;;10.03;100.00
81658;BME280;71057;51.436;6.768;2024-02-21T10:32:57;101341.44;;;10.07;100.00
81658;BME280;71057;51.436;6.768;2024-02-21T10:35:30;101340.41;;;10.01;100.00
81658;BME280;71057;51.436;6.768;2024-02-21T10:37:56;101314.25;;;10.08;100.00
81658;BME280;71057;51.436;6.768;2024-02-21T10:40:26;101326.47;;;10.17;100.00
81658;BME280;71057;51.436;6.768;2024-02-21T10:43:00;101312.00;;;10.05;100.00
81658;BME280;71057;51.436;6.768;2024-02-21T10:45:35;101330.03;;;10.24;100.00
81658;BME280;71057;51.436;6.768;2024-02-21T10:48:14;101299.50;;;10.30;100.00
81658;BME280;71057;51.436;6.768;2024-02-21T10:53:29;101297.63;;;10.82;100.00
81658;BME280;71057;51.436;6.768;2024-02-21T10:56:09;101286.50;;;10.97;100.00
81658;BME280;71057;51.436;6.768;2024-02-21T10:58:36;101277.81;;;10.95;100.00
81658;BME280;71057;51.436;6.768;2024-02-21T11:01:03;101274.75;;;11.16;100.00
81658;BME280;71057;51.436;6.768;2024-02-21T11:03:30;101266.75;;;10.65;100.00
81658;BME280;71057;51.436;6.768;2024-02-21T11:05:56;101245.53;;;10.75;100.00
81658;BME280;71057;51.436;6.768;2024-02-21T11:08:21;101248.31;;;10.94;100.00
81658;BME280;71057;51.436;6.768;2024-02-21T11:10:47;101242.81;;;11.07;100.00
81658;BME280;71057;51.436;6.768;2024-02-21T11:13:12;101228.63;;;10.86;100.00
81658;BME280;71057;51.436;6.768;2024-02-21T11:15:39;101213.81;;;10.96;100.00
81658;BME280;71057;51.436;6.768;2024-02-21T11:18:04;101208.03;;;11.17;100.00
81658;BME280;71057;51.436;6.768;2024-02-21T11:20:34;101203.41;;;11.24;100.00
81658;BME280;71057;51.436;6.768;2024-02-21T11:22:59;101192.31;;;11.32;100.00
81658;BME280;71057;51.436;6.768;2024-02-21T11:25:26;101173.75;;;11.18;100.00
81658;BME280;71057;51.436;6.768;2024-02-21T11:28:02;101164.63;;;11.37;100.00
81658;BME280;71057;51.436;6.768;2024-02-21T11:30:31;101151.81;;;11.51;100.00
81658;BME280;71057;51.436;6.768;2024-02-21T11:33:06;101147.75;;;11.41;100.00
81658;BME280;71057;51.436;6.768;2024-02-21T11:35:35;101141.03;;;11.69;100.00
81658;BME280;71057;51.436;6.768;2024-02-21T11:38:12;101132.50;;;11.65;100.00
81658;BME280;71057;51.436;6.768;2024-02-21T11:40:43;101128.09;;;11.71;100.00
81658;BME280;71057;51.436;6.768;2024-02-21T11:43:08;101121.50;;;11.49;100.00
81658;BME280;71057;51.436;6.768;2024-02-21T11:45:33;101108.44;;;11.82;100.00
81658;BME280;71057;51.436;6.768;2024-02-21T11:47:59;101114.06;;;11.81;100.00
81658;BME280;71057;51.436;6.768;2024-02-21T11:50:29;101092.50;;;11.92;100.00
81658;BME280;71057;51.436;6.768;2024-02-21T11:52:56;101098.88;;;11.98;100.00
81658;BME280;71057;51.436;6.768;2024-02-21T11:55:24;101093.25;;;11.81;100.00
81658;BME280;71057;51.436;6.768;2024-02-21T11:57:49;101087.53;;;11.89;100.00
81658;BME280;71057;51.436;6.768;2024-02-21T12:00:16;101062.16;;;11.72;100.00
81658;BME280;71057;51.436;6.768;2024-02-21T12:02:42;101061.28;;;11.60;100.00
81658;BME280;71057;51.436;6.768;2024-02-21T12:05:08;101047.44;;;11.86;100.00
81658;BME280;71057;51.436;6.768;2024-02-21T12:07:33;101039.38;;;11.98;100.00
81658;BME280;71057;51.436;6.768;2024-02-21T12:09:59;101035.84;;;11.79;100.00
81658;BME280;71057;51.436;6.768;2024-02-21T12:12:25;101058.00;;;12.06;100.00
81658;BME280;71057;51.436;6.768;2024-02-21T12:14:55;101037.16;;;12.07;100.00
81658;BME280;71057;51.436;6.768;2024-02-21T12:17:21;101035.03;;;12.09;100.00
81658;BME280;71057;51.436;6.768;2024-02-21T12:19:46;101036.69;;;12.10;100.00
81658;BME280;71057;51.436;6.768;2024-02-21T12:22:18;101017.97;;;11.96;100.00
81658;BME280;71057;51.436;6.768;2024-02-21T12:24:44;101024.59;;;11.82;100.00
81658;BME280;71057;51.436;6.768;2024-02-21T12:27:13;101021.41;;;12.04;100.00
81658;BME280;71057;51.436;6.768;2024-02-21T12:29:38;101000.38;;;12.17;100.00
81658;BME280;71057;51.436;6.768;2024-02-21T12:32:03;101001.94;;;12.48;100.00
81658;BME280;71057;51.436;6.768;2024-02-21T12:34:29;101006.19;;;12.44;100.00
81658;BME280;71057;51.436;6.768;2024-02-21T12:36:57;100990.91;;;12.73;100.00
81658;BME280;71057;51.436;6.768;2024-02-21T12:39:23;100989.25;;;12.84;100.00
81658;BME280;71057;51.436;6.768;2024-02-21T12:41:48;100996.06;;;12.98;100.00
81658;BME280;71057;51.436;6.768;2024-02-21T12:44:13;100986.94;;;13.16;100.00
81658;BME280;71057;51.436;6.768;2024-02-21T12:46:39;100981.31;;;13.18;100.00